sensor_id;sensor_type;location;lat;lon;timestamp;P1;durP1;ratioP1;P2;durP2;ratioP2
52035;SDS011;38046;49.448;32.074;2023-04-19T00:00:33;7.20;;;4.38;;
52035;SDS011;38046;49.448;32.074;2023-04-19T00:02:59;5.63;;;4.20;;
52035;SDS011;38046;49.448;32.074;2023-04-19T00:05:26;5.50;;;4.15;;
52035;SDS011;38046;49.448;32.074;2023-04-19T00:07:52;6.43;;;3.75;;
52035;SDS011;38046;49.448;32.074;2023-04-19T00:10:18;5.32;;;4.05;;
52035;SDS011;38046;49.448;32.074;2023-04-19T00:12:44;6.03;;;4.43;;
52035;SDS011;38046;49.448;32.074;2023-04-19T00:15:10;7.68;;;4.35;;
52035;SDS011;38046;49.448;32.074;2023-04-19T00:17:36;6.47;;;4.53;;
52035;SDS011;38046;49.448;32.074;2023-04-19T00:20:02;6.22;;;4.22;;
52035;SDS011;38046;49.448;32.074;2023-04-19T00:22:29;6.00;;;3.80;;
52035;SDS011;38046;49.448;32.074;2023-04-19T00:24:55;9.00;;;4.10;;
52035;SDS011;38046;49.448;32.074;2023-04-19T00:27:21;6.35;;;4.10;;
52035;SDS011;38046;49.448;32.074;2023-04-19T00:29:46;6.00;;;4.00;;
52035;SDS011;38046;49.448;32.074;2023-04-19T00:32:12;5.78;;;3.92;;
52035;SDS011;38046;49.448;32.074;2023-04-19T00:34:37;5.45;;;4.30;;
52035;SDS011;38046;49.448;32.074;2023-04-19T00:37:03;6.45;;;4.65;;
52035;SDS011;38046;49.448;32.074;2023-04-19T00:39:29;7.07;;;4.28;;
52035;SDS011;38046;49.448;32.074;2023-04-19T00:41:55;7.57;;;4.43;;
52035;SDS011;38046;49.448;32.074;2023-04-19T00:44:23;5.68;;;4.22;;
52035;SDS011;38046;49.448;32.074;2023-04-19T00:46:49;6.20;;;4.50;;
52035;SDS011;38046;49.448;32.074;2023-04-19T00:49:16;5.95;;;4.07;;
52035;SDS011;38046;49.448;32.074;2023-04-19T00:51:42;4.60;;;3.85;;
52035;SDS011;38046;49.448;32.074;2023-04-19T00:54:08;5.10;;;3.90;;
52035;SDS011;38046;49.448;32.074;2023-04-19T00:56:34;5.93;;;3.78;;
52035;SDS011;38046;49.448;32.074;2023-04-19T00:59:00;5.75;;;4.22;;
52035;SDS011;38046;49.448;32.074;2023-04-19T01:01:26;5.53;;;4.05;;
52035;SDS011;38046;49.448;32.074;2023-04-19T01:03:53;5.60;;;4.20;;
52035;SDS011;38046;49.448;32.074;2023-04-19T01:06:18;6.30;;;4.05;;
52035;SDS011;38046;49.448;32.074;2023-04-19T01:08:45;5.10;;;4.00;;
52035;SDS011;38046;49.448;32.074;2023-04-19T01:11:10;7.07;;;4.15;;
52035;SDS011;38046;49.448;32.074;2023-04-19T01:13:36;7.90;;;4.93;;
52035;SDS011;38046;49.448;32.074;2023-04-19T01:16:02;7.93;;;4.32;;
52035;SDS011;38046;49.448;32.074;2023-04-19T01:18:27;5.10;;;3.75;;
52035;SDS011;38046;49.448;32.074;2023-04-19T01:20:57;6.70;;;4.05;;
52035;SDS011;38046;49.448;32.074;2023-04-19T01:23:23;5.72;;;4.55;;
52035;SDS011;38046;49.448;32.074;2023-04-19T01:25:48;7.05;;;4.63;;
52035;SDS011;38046;49.448;32.074;2023-04-19T01:28:14;5.00;;;3.95;;
52035;SDS011;38046;49.448;32.074;2023-04-19T01:30:40;5.43;;;4.10;;
52035;SDS011;38046;49.448;32.074;2023-04-19T01:33:06;4.85;;;4.03;;
52035;SDS011;38046;49.448;32.074;2023-04-19T01:35:32;6.22;;;4.10;;
52035;SDS011;38046;49.448;32.074;2023-04-19T01:37:57;5.90;;;4.25;;
52035;SDS011;38046;49.448;32.074;2023-04-19T01:40:23;5.43;;;4.10;;
52035;SDS011;38046;49.448;32.074;2023-04-19T01:42:50;6.60;;;4.03;;
52035;SDS011;38046;49.448;32.074;2023-04-19T01:45:16;6.03;;;4.38;;
52035;SDS011;38046;49.448;32.074;2023-04-19T01:47:41;4.80;;;3.83;;
52035;SDS011;38046;49.448;32.074;2023-04-19T01:50:07;5.60;;;4.00;;
52035;SDS011;38046;49.448;32.074;2023-04-19T01:52:33;6.50;;;4.25;;
52035;SDS011;38046;49.448;32.074;2023-04-19T01:54:59;6.60;;;4.25;;
52035;SDS011;38046;49.448;32.074;2023-04-19T01:57:24;6.82;;;4.13;;
52035;SDS011;38046;49.448;32.074;2023-04-19T01:59:51;5.78;;;4.32;;
52035;SDS011;38046;49.448;32.074;2023-04-19T02:02:17;6.80;;;4.28;;
52035;SDS011;38046;49.448;32.074;2023-04-19T02:04:43;6.45;;;4.40;;
52035;SDS011;38046;49.448;32.074;2023-04-19T02:07:09;7.43;;;4.07;;
52035;SDS011;38046;49.448;32.074;2023-04-19T02:09:35;4.55;;;3.50;;
52035;SDS011;38046;49.448;32.074;2023-04-19T02:12:02;4.72;;;3.47;;
52035;SDS011;38046;49.448;32.074;2023-04-19T02:14:28;4.63;;;3.65;;
52035;SDS011;38046;49.448;32.074;2023-04-19T02:16:54;5.60;;;3.92;;
52035;SDS011;38046;49.448;32.074;2023-04-19T02:19:20;5.35;;;4.03;;
52035;SDS011;38046;49.448;32.074;2023-04-19T02:21:45;7.50;;;4.00;;
52035;SDS011;38046;49.448;32.074;2023-04-19T02:24:11;7.25;;;4.72;;
52035;SDS011;38046;49.448;32.074;2023-04-19T02:26:37;7.40;;;4.20;;
52035;SDS011;38046;49.448;32.074;2023-04-19T02:29:03;6.65;;;4.43;;
52035;SDS011;38046;49.448;32.074;2023-04-19T02:31:29;5.60;;;4.00;;
52035;SDS011;38046;49.448;32.074;2023-04-19T02:33:55;6.47;;;4.20;;
52035;SDS011;38046;49.448;32.074;2023-04-19T02:36:21;5.85;;;4.45;;
52035;SDS011;38046;49.448;32.074;2023-04-19T02:38:46;6.32;;;4.40;;
52035;SDS011;38046;49.448;32.074;2023-04-19T02:41:12;6.30;;;4.35;;
52035;SDS011;38046;49.448;32.074;2023-04-19T02:43:38;7.70;;;4.28;;
52035;SDS011;38046;49.448;32.074;2023-04-19T02:46:04;5.13;;;3.83;;
52035;SDS011;38046;49.448;32.074;2023-04-19T02:48:30;6.45;;;4.10;;
52035;SDS011;38046;49.448;32.074;2023-04-19T02:50:56;7.72;;;4.78;;
52035;SDS011;38046;49.448;32.074;2023-04-19T02:53:22;7.13;;;4.03;;
52035;SDS011;38046;49.448;32.074;2023-04-19T02:55:47;5.30;;;3.90;;
52035;SDS011;38046;49.448;32.074;2023-04-19T02:58:13;7.65;;;3.72;;
52035;SDS011;38046;49.448;32.074;2023-04-19T03:00:39;6.28;;;4.40;;
52035;SDS011;38046;49.448;32.074;2023-04-19T03:03:05;4.88;;;3.70;;
52035;SDS011;38046;49.448;32.074;2023-04-19T03:05:31;5.95;;;3.90;;
52035;SDS011;38046;49.448;32.074;2023-04-19T03:07:57;5.55;;;3.90;;
52035;SDS011;38046;49.448;32.074;2023-04-19T03:10:23;5.53;;;4.28;;
52035;SDS011;38046;49.448;32.074;2023-04-19T03:12:49;5.43;;;3.90;;
52035;SDS011;38046;49.448;32.074;2023-04-19T03:15:14;7.22;;;4.30;;
52035;SDS011;38046;49.448;32.074;2023-04-19T03:17:40;5.95;;;4.22;;
52035;SDS011;38046;49.448;32.074;2023-04-19T03:20:06;6.53;;;4.32;;
52035;SDS011;38046;49.448;32.074;2023-04-19T03:22:36;6.15;;;3.90;;
52035;SDS011;38046;49.448;32.074;2023-04-19T03:25:02;8.40;;;4.72;;
52035;SDS011;38046;49.448;32.074;2023-04-19T03:27:28;5.70;;;3.95;;
52035;SDS011;38046;49.448;32.074;2023-04-19T03:29:54;4.78;;;3.58;;
52035;SDS011;38046;49.448;32.074;2023-04-19T03:32:21;6.07;;;4.22;;
52035;SDS011;38046;49.448;32.074;2023-04-19T03:34:46;4.28;;;3.50;;
52035;SDS011;38046;49.448;32.074;2023-04-19T03:37:12;6.43;;;4.22;;
52035;SDS011;38046;49.448;32.074;2023-04-19T03:39:38;6.90;;;3.78;;
52035;SDS011;38046;49.448;32.074;2023-04-19T03:42:03;7.15;;;4.50;;
52035;SDS011;38046;49.448;32.074;2023-04-19T03:44:32;5.07;;;3.90;;
52035;SDS011;38046;49.448;32.074;2023-04-19T03:46:58;4.47;;;3.22;;
52035;SDS011;38046;49.448;32.074;2023-04-19T03:49:24;6.15;;;3.67;;
52035;SDS011;38046;49.448;32.074;2023-04-19T03:51:50;7.40;;;3.65;;
52035;SDS011;38046;49.448;32.074;2023-04-19T03:54:15;6.75;;;3.67;;
52035;SDS011;38046;49.448;32.074;2023-04-19T03:56:41;7.22;;;3.83;;
52035;SDS011;38046;49.448;32.074;2023-04-19T03:59:08;5.05;;;3.67;;
52035;SDS011;38046;49.448;32.074;2023-04-19T04:01:33;4.88;;;3.83;;
52035;SDS011;38046;49.448;32.074;2023-04-19T04:03:59;5.38;;;3.70;;
52035;SDS011;38046;49.448;32.074;2023-04-19T04:06:25;5.15;;;3.67;;
52035;SDS011;38046;49.448;32.074;2023-04-19T04:08:51;6.20;;;3.90;;
52035;SDS011;38046;49.448;32.074;2023-04-19T04:11:16;5.45;;;3.60;;
52035;SDS011;38046;49.448;32.074;2023-04-19T04:13:42;7.03;;;3.78;;
52035;SDS011;38046;49.448;32.074;2023-04-19T04:16:10;4.40;;;3.50;;
52035;SDS011;38046;49.448;32.074;2023-04-19T04:18:36;6.88;;;3.50;;
52035;SDS011;38046;49.448;32.074;2023-04-19T04:21:01;6.90;;;3.70;;
52035;SDS011;38046;49.448;32.074;2023-04-19T04:23:27;4.90;;;3.83;;
52035;SDS011;38046;49.448;32.074;2023-04-19T04:25:59;6.03;;;3.72;;
52035;SDS011;38046;49.448;32.074;2023-04-19T04:28:25;5.13;;;3.47;;
52035;SDS011;38046;49.448;32.074;2023-04-19T04:30:52;5.65;;;3.72;;
52035;SDS011;38046;49.448;32.074;2023-04-19T04:33:21;6.50;;;3.58;;
52035;SDS011;38046;49.448;32.074;2023-04-19T04:35:51;6.13;;;3.53;;
52035;SDS011;38046;49.448;32.074;2023-04-19T04:38:18;4.80;;;3.58;;
52035;SDS011;38046;49.448;32.074;2023-04-19T04:40:50;5.65;;;3.33;;
52035;SDS011;38046;49.448;32.074;2023-04-19T04:43:20;4.28;;;3.00;;
52035;SDS011;38046;49.448;32.074;2023-04-19T04:45:46;5.15;;;3.33;;
52035;SDS011;38046;49.448;32.074;2023-04-19T04:48:12;4.90;;;3.30;;
52035;SDS011;38046;49.448;32.074;2023-04-19T04:50:38;5.65;;;3.20;;
52035;SDS011;38046;49.448;32.074;2023-04-19T04:53:04;3.50;;;3.10;;
52035;SDS011;38046;49.448;32.074;2023-04-19T04:55:30;4.97;;;3.70;;
52035;SDS011;38046;49.448;32.074;2023-04-19T04:57:56;8.13;;;3.63;;
52035;SDS011;38046;49.448;32.074;2023-04-19T05:00:22;6.82;;;3.72;;
52035;SDS011;38046;49.448;32.074;2023-04-19T05:02:47;5.28;;;3.63;;
52035;SDS011;38046;49.448;32.074;2023-04-19T05:05:13;6.35;;;3.63;;
52035;SDS011;38046;49.448;32.074;2023-04-19T05:07:39;3.67;;;3.25;;
52035;SDS011;38046;49.448;32.074;2023-04-19T05:10:05;4.45;;;3.53;;
52035;SDS011;38046;49.448;32.074;2023-04-19T05:12:31;5.55;;;3.17;;
52035;SDS011;38046;49.448;32.074;2023-04-19T05:14:57;7.18;;;3.35;;
52035;SDS011;38046;49.448;32.074;2023-04-19T05:17:23;6.28;;;3.40;;
52035;SDS011;38046;49.448;32.074;2023-04-19T05:19:49;3.92;;;2.95;;
52035;SDS011;38046;49.448;32.074;2023-04-19T05:22:15;5.68;;;3.08;;
52035;SDS011;38046;49.448;32.074;2023-04-19T05:24:40;3.83;;;3.08;;
52035;SDS011;38046;49.448;32.074;2023-04-19T05:27:06;4.47;;;2.65;;
52035;SDS011;38046;49.448;32.074;2023-04-19T05:29:32;5.60;;;3.45;;
52035;SDS011;38046;49.448;32.074;2023-04-19T05:31:57;5.65;;;3.60;;
52035;SDS011;38046;49.448;32.074;2023-04-19T05:34:23;5.05;;;3.20;;
52035;SDS011;38046;49.448;32.074;2023-04-19T05:36:49;5.72;;;3.50;;
52035;SDS011;38046;49.448;32.074;2023-04-19T05:39:15;6.03;;;3.00;;
52035;SDS011;38046;49.448;32.074;2023-04-19T05:41:41;6.93;;;3.47;;
52035;SDS011;38046;49.448;32.074;2023-04-19T05:44:07;6.22;;;3.60;;
52035;SDS011;38046;49.448;32.074;2023-04-19T05:46:32;5.50;;;3.30;;
52035;SDS011;38046;49.448;32.074;2023-04-19T05:48:58;6.30;;;3.20;;
52035;SDS011;38046;49.448;32.074;2023-04-19T05:51:24;6.85;;;3.50;;
52035;SDS011;38046;49.448;32.074;2023-04-19T05:53:49;5.50;;;3.30;;
52035;SDS011;38046;49.448;32.074;2023-04-19T05:56:15;4.82;;;3.15;;
52035;SDS011;38046;49.448;32.074;2023-04-19T05:58:41;3.65;;;2.85;;
52035;SDS011;38046;49.448;32.074;2023-04-19T06:01:06;4.85;;;2.97;;
52035;SDS011;38046;49.448;32.074;2023-04-19T06:03:32;5.50;;;3.70;;
52035;SDS011;38046;49.448;32.074;2023-04-19T06:05:58;5.18;;;3.15;;
52035;SDS011;38046;49.448;32.074;2023-04-19T06:08:23;5.22;;;3.30;;
52035;SDS011;38046;49.448;32.074;2023-04-19T06:10:49;6.25;;;3.80;;
52035;SDS011;38046;49.448;32.074;2023-04-19T06:13:18;4.00;;;3.10;;
52035;SDS011;38046;49.448;32.074;2023-04-19T06:15:43;3.85;;;2.90;;
52035;SDS011;38046;49.448;32.074;2023-04-19T06:18:10;4.40;;;3.00;;
52035;SDS011;38046;49.448;32.074;2023-04-19T06:20:36;3.90;;;3.15;;
52035;SDS011;38046;49.448;32.074;2023-04-19T06:23:02;5.43;;;3.22;;
52035;SDS011;38046;49.448;32.074;2023-04-19T06:25:28;4.68;;;3.40;;
52035;SDS011;38046;49.448;32.074;2023-04-19T06:27:53;4.90;;;3.30;;
52035;SDS011;38046;49.448;32.074;2023-04-19T06:30:19;3.70;;;3.10;;
52035;SDS011;38046;49.448;32.074;2023-04-19T06:32:45;4.88;;;3.00;;
52035;SDS011;38046;49.448;32.074;2023-04-19T06:35:11;4.10;;;3.05;;
52035;SDS011;38046;49.448;32.074;2023-04-19T06:37:36;6.03;;;3.15;;
52035;SDS011;38046;49.448;32.074;2023-04-19T06:40:02;6.18;;;3.30;;
52035;SDS011;38046;49.448;32.074;2023-04-19T06:42:32;5.57;;;3.20;;
52035;SDS011;38046;49.448;32.074;2023-04-19T06:44:58;5.40;;;3.15;;
52035;SDS011;38046;49.448;32.074;2023-04-19T06:47:25;5.07;;;3.40;;
52035;SDS011;38046;49.448;32.074;2023-04-19T06:49:50;3.63;;;3.05;;
52035;SDS011;38046;49.448;32.074;2023-04-19T06:52:16;5.85;;;3.47;;
52035;SDS011;38046;49.448;32.074;2023-04-19T06:54:45;4.88;;;3.30;;
52035;SDS011;38046;49.448;32.074;2023-04-19T06:57:14;5.95;;;3.15;;
52035;SDS011;38046;49.448;32.074;2023-04-19T06:59:40;6.85;;;3.30;;
52035;SDS011;38046;49.448;32.074;2023-04-19T07:02:06;5.07;;;3.30;;
52035;SDS011;38046;49.448;32.074;2023-04-19T07:04:32;5.78;;;3.50;;
52035;SDS011;38046;49.448;32.074;2023-04-19T07:06:58;5.68;;;3.50;;
52035;SDS011;38046;49.448;32.074;2023-04-19T07:09:25;4.63;;;3.20;;
52035;SDS011;38046;49.448;32.074;2023-04-19T07:11:51;5.82;;;3.22;;
52035;SDS011;38046;49.448;32.074;2023-04-19T07:14:17;9.95;;;3.65;;
52035;SDS011;38046;49.448;32.074;2023-04-19T07:16:43;7.10;;;3.22;;
52035;SDS011;38046;49.448;32.074;2023-04-19T07:19:10;7.55;;;3.38;;
52035;SDS011;38046;49.448;32.074;2023-04-19T07:21:36;6.43;;;3.83;;
52035;SDS011;38046;49.448;32.074;2023-04-19T07:24:03;5.60;;;3.08;;
52035;SDS011;38046;49.448;32.074;2023-04-19T07:26:32;10.27;;;3.88;;
52035;SDS011;38046;49.448;32.074;2023-04-19T07:29:00;5.85;;;3.42;;
52035;SDS011;38046;49.448;32.074;2023-04-19T07:31:27;4.63;;;3.20;;
52035;SDS011;38046;49.448;32.074;2023-04-19T07:33:53;6.70;;;3.30;;
52035;SDS011;38046;49.448;32.074;2023-04-19T07:36:18;5.35;;;3.50;;
52035;SDS011;38046;49.448;32.074;2023-04-19T07:38:45;6.82;;;3.50;;
52035;SDS011;38046;49.448;32.074;2023-04-19T07:41:11;4.78;;;3.28;;
52035;SDS011;38046;49.448;32.074;2023-04-19T07:43:37;5.93;;;3.53;;
52035;SDS011;38046;49.448;32.074;2023-04-19T07:46:09;6.45;;;3.70;;
52035;SDS011;38046;49.448;32.074;2023-04-19T07:48:36;6.85;;;3.83;;
52035;SDS011;38046;49.448;32.074;2023-04-19T07:51:11;7.70;;;3.47;;
52035;SDS011;38046;49.448;32.074;2023-04-19T07:53:39;6.40;;;3.88;;
52035;SDS011;38046;49.448;32.074;2023-04-19T07:56:09;9.30;;;3.72;;
52035;SDS011;38046;49.448;32.074;2023-04-19T07:58:36;7.18;;;3.63;;
52035;SDS011;38046;49.448;32.074;2023-04-19T08:01:03;8.07;;;3.63;;
52035;SDS011;38046;49.448;32.074;2023-04-19T08:03:29;5.35;;;3.47;;
52035;SDS011;38046;49.448;32.074;2023-04-19T08:05:56;5.72;;;3.53;;
52035;SDS011;38046;49.448;32.074;2023-04-19T08:08:21;7.82;;;4.03;;
52035;SDS011;38046;49.448;32.074;2023-04-19T08:10:48;6.43;;;3.25;;
52035;SDS011;38046;49.448;32.074;2023-04-19T08:13:14;6.38;;;3.47;;
52035;SDS011;38046;49.448;32.074;2023-04-19T08:15:40;4.72;;;3.10;;
52035;SDS011;38046;49.448;32.074;2023-04-19T08:18:06;6.95;;;3.50;;
52035;SDS011;38046;49.448;32.074;2023-04-19T08:20:32;6.47;;;3.30;;
52035;SDS011;38046;49.448;32.074;2023-04-19T08:22:58;4.85;;;3.28;;
52035;SDS011;38046;49.448;32.074;2023-04-19T08:25:24;6.45;;;3.72;;
52035;SDS011;38046;49.448;32.074;2023-04-19T08:27:52;4.05;;;3.00;;
52035;SDS011;38046;49.448;32.074;2023-04-19T08:30:19;4.90;;;3.60;;
52035;SDS011;38046;49.448;32.074;2023-04-19T08:32:45;7.97;;;3.40;;
52035;SDS011;38046;49.448;32.074;2023-04-19T08:35:11;4.97;;;3.47;;
52035;SDS011;38046;49.448;32.074;2023-04-19T08:37:37;5.90;;;3.40;;
52035;SDS011;38046;49.448;32.074;2023-04-19T08:40:03;7.28;;;3.67;;
52035;SDS011;38046;49.448;32.074;2023-04-19T08:42:30;7.85;;;3.50;;
52035;SDS011;38046;49.448;32.074;2023-04-19T08:44:57;5.57;;;3.38;;
52035;SDS011;38046;49.448;32.074;2023-04-19T08:47:27;3.83;;;3.27;;
52035;SDS011;38046;49.448;32.074;2023-04-19T08:49:54;4.95;;;3.42;;
52035;SDS011;38046;49.448;32.074;2023-04-19T08:52:21;6.53;;;3.63;;
52035;SDS011;38046;49.448;32.074;2023-04-19T08:54:49;6.18;;;3.70;;
52035;SDS011;38046;49.448;32.074;2023-04-19T08:57:15;5.13;;;3.10;;
52035;SDS011;38046;49.448;32.074;2023-04-19T08:59:41;6.15;;;3.70;;
52035;SDS011;38046;49.448;32.074;2023-04-19T09:02:09;4.85;;;3.30;;
52035;SDS011;38046;49.448;32.074;2023-04-19T09:04:35;5.80;;;3.67;;
52035;SDS011;38046;49.448;32.074;2023-04-19T09:07:00;7.40;;;3.33;;
52035;SDS011;38046;49.448;32.074;2023-04-19T09:09:27;5.40;;;3.22;;
52035;SDS011;38046;49.448;32.074;2023-04-19T09:11:54;7.40;;;3.55;;
52035;SDS011;38046;49.448;32.074;2023-04-19T09:14:22;6.60;;;3.65;;
52035;SDS011;38046;49.448;32.074;2023-04-19T09:16:49;5.13;;;3.50;;
52035;SDS011;38046;49.448;32.074;2023-04-19T09:19:16;9.20;;;3.58;;
52035;SDS011;38046;49.448;32.074;2023-04-19T09:21:42;9.40;;;3.58;;
52035;SDS011;38046;49.448;32.074;2023-04-19T09:24:08;4.30;;;3.20;;
52035;SDS011;38046;49.448;32.074;2023-04-19T09:26:34;5.97;;;3.38;;
52035;SDS011;38046;49.448;32.074;2023-04-19T09:29:01;5.65;;;3.38;;
52035;SDS011;38046;49.448;32.074;2023-04-19T09:31:29;10.65;;;3.67;;
52035;SDS011;38046;49.448;32.074;2023-04-19T09:33:56;3.90;;;3.05;;
52035;SDS011;38046;49.448;32.074;2023-04-19T09:36:25;5.97;;;3.45;;
52035;SDS011;38046;49.448;32.074;2023-04-19T09:38:52;4.20;;;2.97;;
52035;SDS011;38046;49.448;32.074;2023-04-19T09:41:19;6.72;;;3.58;;
52035;SDS011;38046;49.448;32.074;2023-04-19T09:43:45;6.05;;;3.40;;
52035;SDS011;38046;49.448;32.074;2023-04-19T09:46:30;4.15;;;3.13;;
52035;SDS011;38046;49.448;32.074;2023-04-19T09:49:12;7.90;;;3.33;;
52035;SDS011;38046;49.448;32.074;2023-04-19T09:51:51;6.88;;;3.50;;
52035;SDS011;38046;49.448;32.074;2023-04-19T09:54:18;7.55;;;3.28;;
52035;SDS011;38046;49.448;32.074;2023-04-19T09:56:45;6.78;;;3.78;;
52035;SDS011;38046;49.448;32.074;2023-04-19T09:59:11;6.30;;;3.33;;
52035;SDS011;38046;49.448;32.074;2023-04-19T10:01:38;8.38;;;3.45;;
52035;SDS011;38046;49.448;32.074;2023-04-19T10:04:14;7.57;;;3.50;;
52035;SDS011;38046;49.448;32.074;2023-04-19T10:06:47;13.63;;;3.63;;
52035;SDS011;38046;49.448;32.074;2023-04-19T10:09:14;8.85;;;3.20;;
52035;SDS011;38046;49.448;32.074;2023-04-19T10:11:42;7.18;;;3.60;;
52035;SDS011;38046;49.448;32.074;2023-04-19T10:14:13;7.90;;;3.75;;
52035;SDS011;38046;49.448;32.074;2023-04-19T10:16:40;7.32;;;3.65;;
52035;SDS011;38046;49.448;32.074;2023-04-19T10:19:14;10.90;;;3.35;;
52035;SDS011;38046;49.448;32.074;2023-04-19T10:21:42;7.60;;;3.35;;
52035;SDS011;38046;49.448;32.074;2023-04-19T10:24:11;7.22;;;3.40;;
52035;SDS011;38046;49.448;32.074;2023-04-19T10:32:27;6.85;;;3.40;;
52035;SDS011;38046;49.448;32.074;2023-04-19T10:35:07;12.02;;;3.95;;
52035;SDS011;38046;49.448;32.074;2023-04-19T10:37:37;7.10;;;3.85;;
52035;SDS011;38046;49.448;32.074;2023-04-19T10:40:04;13.02;;;3.78;;
52035;SDS011;38046;49.448;32.074;2023-04-19T10:43:14;13.10;;;3.60;;
52035;SDS011;38046;49.448;32.074;2023-04-19T10:45:35;10.50;;;3.97;;
52035;SDS011;38046;49.448;32.074;2023-04-19T10:48:02;10.35;;;3.95;;
52035;SDS011;38046;49.448;32.074;2023-04-19T10:50:28;10.95;;;4.20;;
52035;SDS011;38046;49.448;32.074;2023-04-19T10:52:54;7.50;;;3.60;;
52035;SDS011;38046;49.448;32.074;2023-04-19T10:55:20;12.95;;;3.25;;
52035;SDS011;38046;49.448;32.074;2023-04-19T10:58:01;21.40;;;5.90;;
52035;SDS011;38046;49.448;32.074;2023-04-19T11:00:31;16.58;;;5.43;;
52035;SDS011;38046;49.448;32.074;2023-04-19T11:06:15;14.00;;;4.97;;
52035;SDS011;38046;49.448;32.074;2023-04-19T11:08:43;9.40;;;3.25;;
52035;SDS011;38046;49.448;32.074;2023-04-19T11:11:09;9.93;;;3.35;;
52035;SDS011;38046;49.448;32.074;2023-04-19T11:13:35;10.55;;;3.35;;
52035;SDS011;38046;49.448;32.074;2023-04-19T11:16:07;5.95;;;3.53;;
52035;SDS011;38046;49.448;32.074;2023-04-19T11:18:34;9.40;;;3.58;;
52035;SDS011;38046;49.448;32.074;2023-04-19T11:20:59;7.95;;;3.30;;
52035;SDS011;38046;49.448;32.074;2023-04-19T11:23:25;10.63;;;3.65;;
52035;SDS011;38046;49.448;32.074;2023-04-19T11:25:51;11.45;;;3.83;;
52035;SDS011;38046;49.448;32.074;2023-04-19T11:28:17;10.05;;;3.38;;
52035;SDS011;38046;49.448;32.074;2023-04-19T11:30:43;11.65;;;3.55;;
52035;SDS011;38046;49.448;32.074;2023-04-19T11:33:09;9.13;;;3.55;;
52035;SDS011;38046;49.448;32.074;2023-04-19T11:35:37;11.40;;;3.78;;
52035;SDS011;38046;49.448;32.074;2023-04-19T11:38:02;8.20;;;3.40;;
52035;SDS011;38046;49.448;32.074;2023-04-19T11:40:31;14.68;;;3.80;;
52035;SDS011;38046;49.448;32.074;2023-04-19T11:43:01;12.52;;;3.67;;
52035;SDS011;38046;49.448;32.074;2023-04-19T11:45:29;12.43;;;3.92;;
52035;SDS011;38046;49.448;32.074;2023-04-19T11:48:00;9.07;;;3.40;;
52035;SDS011;38046;49.448;32.074;2023-04-19T11:50:30;13.85;;;3.92;;
52035;SDS011;38046;49.448;32.074;2023-04-19T11:52:56;10.52;;;3.58;;
52035;SDS011;38046;49.448;32.074;2023-04-19T11:55:22;7.60;;;3.17;;
52035;SDS011;38046;49.448;32.074;2023-04-19T11:57:48;8.85;;;3.50;;
52035;SDS011;38046;49.448;32.074;2023-04-19T12:00:14;14.85;;;3.60;;
52035;SDS011;38046;49.448;32.074;2023-04-19T12:02:43;10.13;;;4.07;;
52035;SDS011;38046;49.448;32.074;2023-04-19T12:05:10;8.23;;;3.75;;
52035;SDS011;38046;49.448;32.074;2023-04-19T12:07:56;10.00;;;3.22;;
52035;SDS011;38046;49.448;32.074;2023-04-19T12:10:25;10.98;;;3.50;;
52035;SDS011;38046;49.448;32.074;2023-04-19T12:12:51;8.50;;;3.63;;
52035;SDS011;38046;49.448;32.074;2023-04-19T12:15:17;12.75;;;3.63;;
52035;SDS011;38046;49.448;32.074;2023-04-19T12:17:58;9.50;;;3.78;;
52035;SDS011;38046;49.448;32.074;2023-04-19T12:22:54;12.23;;;3.90;;
52035;SDS011;38046;49.448;32.074;2023-04-19T12:25:20;13.35;;;3.78;;
52035;SDS011;38046;49.448;32.074;2023-04-19T12:27:45;13.85;;;3.75;;
52035;SDS011;38046;49.448;32.074;2023-04-19T12:30:11;7.20;;;3.13;;
52035;SDS011;38046;49.448;32.074;2023-04-19T12:32:37;6.75;;;3.40;;
52035;SDS011;38046;49.448;32.074;2023-04-19T12:35:03;11.52;;;4.13;;
52035;SDS011;38046;49.448;32.074;2023-04-19T12:37:28;16.30;;;4.00;;
52035;SDS011;38046;49.448;32.074;2023-04-19T12:39:54;8.52;;;3.97;;
52035;SDS011;38046;49.448;32.074;2023-04-19T12:42:20;10.38;;;3.40;;
52035;SDS011;38046;49.448;32.074;2023-04-19T12:44:46;8.40;;;3.30;;
52035;SDS011;38046;49.448;32.074;2023-04-19T12:47:11;9.93;;;3.50;;
52035;SDS011;38046;49.448;32.074;2023-04-19T12:49:37;6.15;;;2.95;;
52035;SDS011;38046;49.448;32.074;2023-04-19T12:52:02;8.65;;;3.50;;
52035;SDS011;38046;49.448;32.074;2023-04-19T12:54:29;12.85;;;3.25;;
52035;SDS011;38046;49.448;32.074;2023-04-19T12:56:55;12.25;;;3.28;;
52035;SDS011;38046;49.448;32.074;2023-04-19T12:59:21;10.68;;;3.58;;
52035;SDS011;38046;49.448;32.074;2023-04-19T13:01:47;7.95;;;3.58;;
52035;SDS011;38046;49.448;32.074;2023-04-19T13:04:13;9.00;;;3.70;;
52035;SDS011;38046;49.448;32.074;2023-04-19T13:06:39;8.55;;;3.78;;
52035;SDS011;38046;49.448;32.074;2023-04-19T13:09:06;7.10;;;3.90;;
52035;SDS011;38046;49.448;32.074;2023-04-19T13:11:32;10.98;;;4.05;;
52035;SDS011;38046;49.448;32.074;2023-04-19T13:13:57;7.43;;;3.95;;
52035;SDS011;38046;49.448;32.074;2023-04-19T13:16:23;11.52;;;3.50;;
52035;SDS011;38046;49.448;32.074;2023-04-19T13:18:49;10.07;;;3.72;;
52035;SDS011;38046;49.448;32.074;2023-04-19T13:21:16;10.05;;;3.50;;
52035;SDS011;38046;49.448;32.074;2023-04-19T13:23:42;8.30;;;3.70;;
52035;SDS011;38046;49.448;32.074;2023-04-19T13:26:09;7.90;;;3.60;;
52035;SDS011;38046;49.448;32.074;2023-04-19T13:28:35;9.80;;;3.50;;
52035;SDS011;38046;49.448;32.074;2023-04-19T13:31:01;12.15;;;3.70;;
52035;SDS011;38046;49.448;32.074;2023-04-19T13:33:28;10.65;;;3.53;;
52035;SDS011;38046;49.448;32.074;2023-04-19T13:35:54;8.82;;;3.90;;
52035;SDS011;38046;49.448;32.074;2023-04-19T13:38:19;10.18;;;3.60;;
52035;SDS011;38046;49.448;32.074;2023-04-19T13:40:45;8.77;;;3.53;;
52035;SDS011;38046;49.448;32.074;2023-04-19T13:43:11;8.95;;;3.47;;
52035;SDS011;38046;49.448;32.074;2023-04-19T13:45:37;9.45;;;4.22;;
52035;SDS011;38046;49.448;32.074;2023-04-19T13:48:02;10.02;;;3.92;;
52035;SDS011;38046;49.448;32.074;2023-04-19T13:50:28;9.45;;;3.70;;
52035;SDS011;38046;49.448;32.074;2023-04-19T13:52:54;12.77;;;4.05;;
52035;SDS011;38046;49.448;32.074;2023-04-19T13:55:20;11.00;;;4.25;;
52035;SDS011;38046;49.448;32.074;2023-04-19T13:57:45;12.13;;;4.03;;
52035;SDS011;38046;49.448;32.074;2023-04-19T14:00:11;11.70;;;3.88;;
52035;SDS011;38046;49.448;32.074;2023-04-19T14:02:38;8.93;;;4.07;;
52035;SDS011;38046;49.448;32.074;2023-04-19T14:05:03;9.13;;;4.10;;
52035;SDS011;38046;49.448;32.074;2023-04-19T14:07:29;10.85;;;4.28;;
52035;SDS011;38046;49.448;32.074;2023-04-19T14:09:56;12.45;;;3.85;;
52035;SDS011;38046;49.448;32.074;2023-04-19T14:12:22;6.35;;;4.07;;
52035;SDS011;38046;49.448;32.074;2023-04-19T14:14:47;9.77;;;4.68;;
52035;SDS011;38046;49.448;32.074;2023-04-19T14:17:13;8.95;;;4.50;;
52035;SDS011;38046;49.448;32.074;2023-04-19T14:19:39;9.75;;;4.63;;
52035;SDS011;38046;49.448;32.074;2023-04-19T14:22:04;10.52;;;4.43;;
52035;SDS011;38046;49.448;32.074;2023-04-19T14:24:30;7.30;;;4.53;;
52035;SDS011;38046;49.448;32.074;2023-04-19T14:26:56;9.82;;;4.65;;
52035;SDS011;38046;49.448;32.074;2023-04-19T14:29:22;8.70;;;3.97;;
52035;SDS011;38046;49.448;32.074;2023-04-19T14:31:47;10.07;;;4.03;;
52035;SDS011;38046;49.448;32.074;2023-04-19T14:34:13;10.32;;;3.95;;
52035;SDS011;38046;49.448;32.074;2023-04-19T14:36:39;10.43;;;3.85;;
52035;SDS011;38046;49.448;32.074;2023-04-19T14:39:04;9.30;;;3.90;;
52035;SDS011;38046;49.448;32.074;2023-04-19T14:41:30;8.68;;;3.88;;